createdAt,value
2023-05-06T00:00:13.118Z,2.53
2023-05-06T00:02:43.275Z,2.67
2023-05-06T00:05:11.708Z,3.65
2023-05-06T00:07:41.710Z,3.22
2023-05-06T00:10:10.699Z,6.13
2023-05-06T00:12:40.368Z,5.72
2023-05-06T00:15:09.598Z,3.90
2023-05-06T00:17:37.952Z,3.65
2023-05-06T00:20:07.501Z,3.90
2023-05-06T00:22:35.638Z,4.75
2023-05-06T00:25:04.261Z,4.68
2023-05-06T00:27:32.583Z,5.00
2023-05-06T00:30:02.241Z,5.28
2023-05-06T00:32:30.447Z,4.80
2023-05-06T00:34:58.993Z,7.45
2023-05-06T00:37:27.237Z,4.25
2023-05-06T00:39:55.464Z,4.00
2023-05-06T00:42:23.740Z,6.05
2023-05-06T00:44:51.889Z,5.00
2023-05-06T00:47:23.225Z,4.00
2023-05-06T00:49:52.195Z,6.25
2023-05-06T00:52:20.962Z,4.75
2023-05-06T00:54:49.175Z,6.43
2023-05-06T00:57:17.285Z,5.55
2023-05-06T00:59:45.566Z,4.50
2023-05-06T01:02:13.674Z,5.22
2023-05-06T01:04:43.829Z,5.30
2023-05-06T01:07:24.815Z,9.43
2023-05-06T01:09:58.450Z,6.25
2023-05-06T01:12:31.797Z,6.72
2023-05-06T01:15:06.635Z,5.93
2023-05-06T01:17:37.866Z,8.77
2023-05-06T01:20:11.841Z,7.75
2023-05-06T01:22:40.494Z,7.35
2023-05-06T01:25:19.233Z,8.07
2023-05-06T01:27:47.686Z,6.50
2023-05-06T01:30:18.694Z,6.22
2023-05-06T01:32:58.301Z,8.80
2023-05-06T01:35:36.382Z,7.70
2023-05-06T01:38:17.175Z,7.97
2023-05-06T01:40:54.320Z,6.70
2023-05-06T01:43:23.130Z,8.60
2023-05-06T01:45:55.229Z,9.95
2023-05-06T01:48:24.417Z,8.50
2023-05-06T01:50:53.659Z,11.93
2023-05-06T01:53:23.205Z,8.35
2023-05-06T01:55:53.956Z,7.20
2023-05-06T01:58:23.513Z,10.73
2023-05-06T02:00:52.750Z,8.00
2023-05-06T02:03:21.769Z,7.32
2023-05-06T02:05:50.632Z,8.80
2023-05-06T02:08:18.664Z,8.25
2023-05-06T02:10:47.079Z,8.18
2023-05-06T02:13:18.890Z,8.38
2023-05-06T02:15:47.123Z,8.07
2023-05-06T02:18:18.922Z,8.23
2023-05-06T02:20:47.132Z,8.95
2023-05-06T02:23:18.719Z,8.02
2023-05-06T02:25:47.916Z,10.02
2023-05-06T02:28:17.244Z,8.65
2023-05-06T02:30:45.807Z,9.10
2023-05-06T02:33:14.116Z,8.90
2023-05-06T02:35:42.358Z,9.90
2023-05-06T02:38:10.825Z,9.40
2023-05-06T02:40:38.904Z,8.98
2023-05-06T02:43:07.008Z,9.40
2023-05-06T02:45:37.362Z,8.57
2023-05-06T02:48:06.075Z,7.78
2023-05-06T02:50:36.761Z,7.18
2023-05-06T02:53:04.920Z,7.07
2023-05-06T02:55:33.336Z,7.38
2023-05-06T02:58:01.658Z,7.25
2023-05-06T03:00:29.959Z,7.55
2023-05-06T03:03:00.375Z,9.50
2023-05-06T03:05:29.450Z,7.90
2023-05-06T03:07:58.115Z,8.27
2023-05-06T03:10:27.091Z,10.48
2023-05-06T03:12:57.166Z,9.52
2023-05-06T03:15:26.401Z,10.00
2023-05-06T03:17:56.169Z,7.30
2023-05-06T03:20:29.083Z,8.52
2023-05-06T03:22:59.603Z,6.70
2023-05-06T03:25:28.823Z,8.15
2023-05-06T03:27:58.620Z,9.25
2023-05-06T03:30:29.413Z,9.95
2023-05-06T03:33:03.274Z,9.95
2023-05-06T03:35:36.430Z,8.82
2023-05-06T03:38:05.847Z,8.32
2023-05-06T03:40:44.884Z,9.57
2023-05-06T03:43:15.848Z,12.35
2023-05-06T03:45:47.823Z,9.30
2023-05-06T03:48:16.856Z,8.15
2023-05-06T03:50:48.345Z,8.10
2023-05-06T03:53:17.779Z,7.30
2023-05-06T03:55:48.475Z,7.95
2023-05-06T03:58:16.784Z,8.25
2023-05-06T04:00:47.026Z,8.63
2023-05-06T04:03:16.088Z,8.23
2023-05-06T04:05:50.798Z,10.63
2023-05-06T04:08:23.404Z,9.20
2023-05-06T04:10:52.091Z,9.48
2023-05-06T04:13:32.540Z,6.85
2023-05-06T04:16:04.233Z,6.53
2023-05-06T04:18:39.872Z,7.63
2023-05-06T04:21:13.757Z,10.00
2023-05-06T04:23:44.433Z,6.72
2023-05-06T04:26:16.714Z,6.85
2023-05-06T04:28:47.063Z,5.45
2023-05-06T04:31:16.544Z,6.00
2023-05-06T04:33:47.640Z,7.88
2023-05-06T04:36:19.966Z,7.25
2023-05-06T04:39:08.789Z,7.43
2023-05-06T04:41:38.254Z,6.53
2023-05-06T04:44:07.065Z,6.38
2023-05-06T04:46:35.161Z,5.68
2023-05-06T04:49:04.619Z,5.47
2023-05-06T04:51:34.202Z,6.57
2023-05-06T04:54:03.336Z,5.65
2023-05-06T04:56:31.450Z,5.38
2023-05-06T04:59:00.635Z,6.53
2023-05-06T05:01:31.161Z,6.78
2023-05-06T05:03:59.495Z,6.50
2023-05-06T05:06:27.765Z,6.68
2023-05-06T05:08:59.361Z,7.38
2023-05-06T05:11:28.109Z,8.63
2023-05-06T05:13:58.364Z,7.80
2023-05-06T05:16:28.598Z,7.50
2023-05-06T05:19:03.732Z,7.40
2023-05-06T05:21:35.531Z,7.47
2023-05-06T05:24:05.905Z,8.45
2023-05-06T05:26:34.583Z,8.65
2023-05-06T05:29:03.195Z,8.60
2023-05-06T05:31:33.257Z,9.68
2023-05-06T05:34:02.077Z,8.48
2023-05-06T05:36:30.404Z,7.95
2023-05-06T05:39:00.471Z,7.22
2023-05-06T05:41:32.146Z,7.05
2023-05-06T05:44:00.364Z,6.90
2023-05-06T05:46:28.843Z,6.03
2023-05-06T05:48:58.325Z,7.80
2023-05-06T05:51:27.158Z,4.40
2023-05-06T05:53:57.047Z,7.10
2023-05-06T05:56:27.379Z,4.63
2023-05-06T05:58:56.715Z,6.72
2023-05-06T06:01:25.717Z,7.88
2023-05-06T06:03:55.974Z,4.90
2023-05-06T06:06:24.640Z,5.75
2023-05-06T06:08:53.463Z,5.30
2023-05-06T06:11:22.563Z,5.43
2023-05-06T06:13:50.818Z,4.85
2023-05-06T06:16:20.747Z,4.68
2023-05-06T06:18:50.000Z,4.47
2023-05-06T06:21:17.897Z,4.70
2023-05-06T06:23:46.852Z,4.53
2023-05-06T06:26:14.779Z,4.00
2023-05-06T06:28:44.810Z,4.00
2023-05-06T06:31:13.120Z,5.53
2023-05-06T06:33:42.702Z,5.20
2023-05-06T06:36:11.347Z,6.32
2023-05-06T06:38:40.211Z,4.30
2023-05-06T06:41:08.421Z,4.00
2023-05-06T06:43:36.549Z,4.22
2023-05-06T06:46:25.358Z,2.97
2023-05-06T06:48:55.163Z,3.88
2023-05-06T06:51:23.406Z,3.08
2023-05-06T06:53:52.766Z,4.40
2023-05-06T06:56:21.369Z,2.78
2023-05-06T06:58:50.751Z,2.92
2023-05-06T07:01:19.956Z,2.47
2023-05-06T07:03:48.318Z,2.30
2023-05-06T07:06:17.980Z,4.55
2023-05-06T07:08:46.009Z,2.25
2023-05-06T07:11:14.934Z,3.03
2023-05-06T07:13:43.288Z,2.95
2023-05-06T07:16:11.466Z,3.00
2023-05-06T07:18:39.616Z,2.88
2023-05-06T07:21:07.729Z,4.68
2023-05-06T07:23:37.034Z,6.57
2023-05-06T07:26:05.517Z,3.42
2023-05-06T07:28:33.878Z,2.70
2023-05-06T07:31:02.094Z,4.82
2023-05-06T07:33:30.250Z,3.53
2023-05-06T07:35:58.486Z,5.40
2023-05-06T07:38:26.520Z,3.30
2023-05-06T07:40:57.222Z,3.05
2023-05-06T07:43:25.446Z,2.55
2023-05-06T07:45:58.941Z,4.88
2023-05-06T07:48:48.366Z,2.80
2023-05-06T07:51:17.695Z,2.75
2023-05-06T07:53:45.759Z,2.95
2023-05-06T07:56:15.324Z,2.83
2023-05-06T07:58:43.567Z,3.15
2023-05-06T08:01:12.074Z,2.40
2023-05-06T08:03:40.444Z,2.22
2023-05-06T08:06:09.055Z,1.80
2023-05-06T08:08:37.434Z,1.58
2023-05-06T08:11:05.632Z,2.53
2023-05-06T08:13:35.023Z,2.05
2023-05-06T08:16:04.082Z,2.38
2023-05-06T08:18:32.285Z,1.95
2023-05-06T08:21:00.623Z,2.78
2023-05-06T08:23:29.023Z,2.15
2023-05-06T08:25:57.154Z,2.85
2023-05-06T08:28:25.519Z,2.17
2023-05-06T08:30:55.055Z,2.40
2023-05-06T08:33:23.316Z,2.42
2023-05-06T08:35:52.566Z,2.22
2023-05-06T08:38:20.635Z,5.35
2023-05-06T08:40:50.331Z,2.13
2023-05-06T08:43:21.879Z,2.25
2023-05-06T08:45:50.816Z,2.35
2023-05-06T08:48:21.025Z,2.42
2023-05-06T08:50:51.007Z,3.05
2023-05-06T08:53:19.717Z,2.10
2023-05-06T08:55:50.666Z,2.10
2023-05-06T08:58:20.036Z,1.88
2023-05-06T09:00:48.644Z,2.10
2023-05-06T09:03:17.050Z,2.25
2023-05-06T09:05:46.876Z,2.10
2023-05-06T09:08:15.973Z,1.75
2023-05-06T09:10:45.205Z,1.52
2023-05-06T09:13:14.337Z,1.50
2023-05-06T09:15:43.092Z,1.52
2023-05-06T09:18:12.070Z,3.75
2023-05-06T09:20:43.212Z,1.55
2023-05-06T09:23:15.180Z,1.52
2023-05-06T09:25:44.151Z,1.70
2023-05-06T09:28:13.914Z,3.05
2023-05-06T09:30:42.470Z,2.78
2023-05-06T09:33:11.347Z,3.20
2023-05-06T09:35:40.420Z,2.63
2023-05-06T09:38:10.755Z,2.85
2023-05-06T09:40:40.455Z,2.60
2023-05-06T09:43:10.232Z,4.72
2023-05-06T09:45:38.570Z,1.83
2023-05-06T09:48:09.519Z,2.55
2023-05-06T09:50:38.062Z,2.47
2023-05-06T09:53:07.547Z,2.72
2023-05-06T09:55:36.728Z,2.72
2023-05-06T09:58:07.955Z,2.20
2023-05-06T10:00:37.498Z,4.10
2023-05-06T10:03:06.683Z,3.08
2023-05-06T10:05:36.572Z,1.95
2023-05-06T10:08:05.264Z,2.28
2023-05-06T10:10:35.829Z,2.30
2023-05-06T10:13:04.734Z,2.08
2023-05-06T10:15:34.498Z,3.77
2023-05-06T10:18:04.334Z,2.03
2023-05-06T10:20:35.198Z,2.10
2023-05-06T10:23:11.115Z,1.60
2023-05-06T10:25:41.053Z,1.97
2023-05-06T10:28:15.415Z,3.78
2023-05-06T10:30:52.903Z,1.93
2023-05-06T10:33:25.087Z,1.80
2023-05-06T10:36:04.247Z,2.77
2023-05-06T10:38:37.143Z,3.78
2023-05-06T10:41:05.585Z,2.30
2023-05-06T10:43:35.353Z,3.37
2023-05-06T10:46:08.247Z,1.97
2023-05-06T10:48:37.226Z,2.13
2023-05-06T10:51:29.660Z,2.20
2023-05-06T10:54:03.136Z,1.90
2023-05-06T10:56:33.448Z,4.00
2023-05-06T10:59:08.695Z,1.93
2023-05-06T11:01:39.446Z,2.40
2023-05-06T11:04:09.583Z,2.73
2023-05-06T11:06:40.554Z,2.43
2023-05-06T11:09:17.337Z,1.70
2023-05-06T11:12:00.964Z,7.60
2023-05-06T11:14:30.815Z,1.77
2023-05-06T11:17:01.640Z,1.87
2023-05-06T11:19:31.112Z,1.90
2023-05-06T11:22:00.800Z,2.20
2023-05-06T11:24:30.437Z,1.50
2023-05-06T11:27:01.853Z,1.77
2023-05-06T11:29:29.832Z,2.30
2023-05-06T11:31:58.141Z,2.53
2023-05-06T11:34:29.971Z,1.70
2023-05-06T11:37:03.134Z,1.40
2023-05-06T11:39:38.755Z,1.67
2023-05-06T11:42:09.138Z,1.80
2023-05-06T11:44:39.794Z,1.93
2023-05-06T11:47:09.778Z,1.80
2023-05-06T11:49:41.871Z,1.80
2023-05-06T11:52:10.844Z,1.77
2023-05-06T11:54:41.246Z,1.80
2023-05-06T11:57:10.217Z,2.03
2023-05-06T11:59:39.803Z,1.70
2023-05-06T12:02:09.139Z,3.53
2023-05-06T12:04:43.307Z,2.03
2023-05-06T12:07:12.679Z,1.50
2023-05-06T12:09:42.960Z,2.43
2023-05-06T12:12:12.215Z,2.10
2023-05-06T12:14:41.259Z,1.70
2023-05-06T12:17:09.544Z,2.73
2023-05-06T12:19:37.888Z,2.00
2023-05-06T12:22:18.072Z,2.10
2023-05-06T12:24:46.470Z,3.33
2023-05-06T12:27:14.813Z,2.27
2023-05-06T12:29:53.006Z,5.63
2023-05-06T12:32:21.324Z,2.30
2023-05-06T12:34:49.404Z,1.60
2023-05-06T12:37:28.531Z,3.27
2023-05-06T12:39:59.183Z,1.70
2023-05-06T12:42:27.967Z,1.70
2023-05-06T12:44:56.295Z,2.03
2023-05-06T12:47:26.295Z,1.30
2023-05-06T12:49:57.957Z,1.80
2023-05-06T12:52:30.154Z,1.73
2023-05-06T12:54:58.743Z,2.03
2023-05-06T12:57:27.329Z,2.93
2023-05-06T12:59:56.418Z,2.10
2023-05-06T13:02:24.966Z,2.20
2023-05-06T13:04:53.287Z,1.77
2023-05-06T13:07:22.452Z,2.00
2023-05-06T13:09:52.140Z,4.03
2023-05-06T13:12:20.164Z,1.87
2023-05-06T13:14:48.175Z,3.83
2023-05-06T13:17:16.563Z,2.77
2023-05-06T13:19:45.244Z,1.60
2023-05-06T13:22:13.410Z,1.63
2023-05-06T13:24:41.490Z,1.80
2023-05-06T13:27:11.715Z,2.03
2023-05-06T13:29:39.925Z,1.73
2023-05-06T13:32:08.954Z,1.70
2023-05-06T13:34:37.404Z,2.23
2023-05-06T13:37:05.498Z,1.47
2023-05-06T13:39:33.641Z,1.77
2023-05-06T13:42:03.491Z,2.83
2023-05-06T13:44:34.105Z,1.83
2023-05-06T13:47:02.232Z,1.70
2023-05-06T13:49:30.408Z,1.50
2023-05-06T13:51:58.527Z,2.40
2023-05-06T13:54:26.810Z,1.30
2023-05-06T13:56:54.888Z,1.30
2023-05-06T13:59:22.920Z,3.20
2023-05-06T14:01:54.131Z,4.10
2023-05-06T14:04:22.333Z,1.17
2023-05-06T14:06:50.380Z,2.70
2023-05-06T14:09:19.123Z,7.20
2023-05-06T14:11:47.111Z,1.50
2023-05-06T14:14:15.561Z,1.40
2023-05-06T14:16:43.594Z,2.23
2023-05-06T14:19:13.230Z,1.83
2023-05-06T14:21:41.266Z,1.57
2023-05-06T14:24:10.864Z,1.50
2023-05-06T14:26:40.396Z,1.50
2023-05-06T14:29:09.068Z,1.70
2023-05-06T14:31:37.312Z,1.70
2023-05-06T14:34:07.785Z,1.70
2023-05-06T14:36:40.063Z,1.40
2023-05-06T14:39:11.463Z,2.07
2023-05-06T14:41:42.175Z,1.70
2023-05-06T14:44:10.654Z,1.33
2023-05-06T14:46:39.222Z,1.60
2023-05-06T14:49:09.645Z,2.03
2023-05-06T14:51:42.447Z,1.73
2023-05-06T14:54:15.726Z,1.83
2023-05-06T14:56:50.323Z,1.50
2023-05-06T14:59:25.991Z,1.70
2023-05-06T15:02:03.069Z,2.33
2023-05-06T15:04:33.552Z,2.27
2023-05-06T15:07:07.228Z,1.73
2023-05-06T15:09:40.639Z,1.80
2023-05-06T15:12:12.200Z,1.63
2023-05-06T15:14:43.197Z,2.60
2023-05-06T15:17:17.794Z,1.97
2023-05-06T15:19:49.392Z,2.43
2023-05-06T15:22:21.389Z,1.70
2023-05-06T15:24:54.067Z,1.33
2023-05-06T15:27:27.779Z,2.03
2023-05-06T15:30:05.635Z,2.33
2023-05-06T15:32:38.117Z,1.80
2023-05-06T15:35:11.628Z,2.80
2023-05-06T15:37:47.173Z,4.10
2023-05-06T15:40:23.898Z,2.43
2023-05-06T15:42:55.599Z,3.50
2023-05-06T15:45:26.242Z,1.80
2023-05-06T15:47:57.996Z,2.20
2023-05-06T15:50:33.761Z,2.03
2023-05-06T15:53:12.176Z,3.10
2023-05-06T15:55:55.164Z,1.63
2023-05-06T15:58:30.363Z,2.00
2023-05-06T16:01:07.521Z,1.63
2023-05-06T16:03:45.315Z,2.03
2023-05-06T16:06:20.317Z,1.93
2023-05-06T16:08:54.190Z,1.60
2023-05-06T16:11:27.837Z,3.20
2023-05-06T16:13:59.759Z,3.20
2023-05-06T16:16:32.380Z,1.50
2023-05-06T16:19:01.537Z,1.50
2023-05-06T16:21:29.709Z,2.17
2023-05-06T16:23:59.253Z,1.97
2023-05-06T16:26:27.467Z,2.77
2023-05-06T16:28:55.583Z,1.83
2023-05-06T16:31:23.791Z,1.80
2023-05-06T16:33:51.907Z,3.43
2023-05-06T16:36:20.255Z,1.63
2023-05-06T16:38:48.433Z,2.80
2023-05-06T16:41:17.877Z,2.00
2023-05-06T16:43:46.126Z,1.40
2023-05-06T16:46:14.660Z,1.40
2023-05-06T16:48:43.043Z,1.90
2023-05-06T16:51:13.683Z,1.73
2023-05-06T16:53:42.037Z,1.20
2023-05-06T16:56:10.758Z,1.90
2023-05-06T16:58:43.722Z,1.67
2023-05-06T17:01:11.995Z,3.33
2023-05-06T17:03:40.484Z,3.20
2023-05-06T17:06:09.134Z,1.30
2023-05-06T17:08:37.681Z,1.83
2023-05-06T17:11:07.568Z,3.00
2023-05-06T17:13:36.040Z,2.07
2023-05-06T17:16:06.000Z,2.33
2023-05-06T17:18:34.525Z,2.50
2023-05-06T17:21:03.084Z,2.00
2023-05-06T17:23:31.211Z,1.77
2023-05-06T17:25:59.701Z,1.87
2023-05-06T17:28:28.096Z,3.10
2023-05-06T17:30:56.359Z,2.33
2023-05-06T17:33:26.039Z,1.70
2023-05-06T17:35:54.510Z,1.70
2023-05-06T17:38:24.578Z,2.60
2023-05-06T17:40:54.968Z,1.60
2023-05-06T17:43:23.822Z,1.73
2023-05-06T17:45:53.236Z,1.30
2023-05-06T17:48:23.737Z,2.20
2023-05-06T17:51:02.658Z,2.70
2023-05-06T17:53:32.938Z,5.03
2023-05-06T17:56:01.660Z,2.33
2023-05-06T17:58:34.143Z,1.67
2023-05-06T18:01:03.998Z,1.53
2023-05-06T18:03:32.429Z,1.47
2023-05-06T18:06:02.381Z,1.53
2023-05-06T18:08:34.559Z,2.63
2023-05-06T18:11:04.363Z,2.10
2023-05-06T18:13:43.579Z,2.50
2023-05-06T18:16:12.770Z,2.23
2023-05-06T18:18:46.441Z,1.57
2023-05-06T18:21:24.961Z,1.93
2023-05-06T18:24:05.856Z,3.07
2023-05-06T18:26:52.112Z,1.30
2023-05-06T18:29:29.365Z,3.30
2023-05-06T18:32:10.178Z,1.90
2023-05-06T18:34:44.736Z,2.03
2023-05-06T18:37:20.591Z,2.40
2023-05-06T18:39:59.318Z,1.60
2023-05-06T18:42:35.598Z,2.10
2023-05-06T18:45:08.754Z,1.83
2023-05-06T18:47:46.755Z,1.88
2023-05-06T18:50:26.969Z,2.05
2023-05-06T18:53:07.261Z,2.67
2023-05-06T18:55:45.828Z,3.70
2023-05-06T18:58:25.201Z,1.75
2023-05-06T19:01:29.845Z,1.77
2023-05-06T19:04:08.961Z,2.72
2023-05-06T19:06:48.218Z,1.92
2023-05-06T19:09:22.631Z,2.72
2023-05-06T19:11:58.036Z,2.13
2023-05-06T19:14:29.339Z,2.33
2023-05-06T19:16:59.651Z,1.50
2023-05-06T19:19:33.089Z,2.78
2023-05-06T19:22:03.570Z,2.40
2023-05-06T19:24:34.929Z,2.05
2023-05-06T19:27:11.851Z,2.67
2023-05-06T19:29:46.953Z,3.35
2023-05-06T19:32:16.958Z,2.10
2023-05-06T19:34:45.110Z,2.33
2023-05-06T19:37:13.255Z,2.60
2023-05-06T19:39:42.793Z,4.43
2023-05-06T19:42:11.057Z,3.55
2023-05-06T19:44:39.291Z,2.65
2023-05-06T19:47:07.422Z,2.50
2023-05-06T19:49:35.867Z,1.60
2023-05-06T19:52:04.120Z,1.60
2023-05-06T19:54:32.229Z,2.15
2023-05-06T19:57:02.359Z,2.00
2023-05-06T19:59:30.733Z,2.00
2023-05-06T20:02:01.766Z,7.07
2023-05-06T20:04:30.213Z,1.90
2023-05-06T20:06:58.402Z,5.43
2023-05-06T20:09:26.508Z,1.90
2023-05-06T20:11:54.672Z,2.22
2023-05-06T20:14:24.490Z,2.47
2023-05-06T20:16:53.013Z,1.75
2023-05-06T20:19:23.788Z,3.15
2023-05-06T20:21:52.360Z,2.70
2023-05-06T20:24:20.664Z,2.67
2023-05-06T20:26:48.810Z,1.77
2023-05-06T20:29:17.257Z,2.63
2023-05-06T20:31:48.394Z,4.70
2023-05-06T20:34:16.824Z,3.45
2023-05-06T20:36:45.397Z,2.20
2023-05-06T20:39:13.629Z,1.98
2023-05-06T20:41:41.728Z,1.77
2023-05-06T20:44:10.067Z,2.15
2023-05-06T20:46:38.267Z,1.92
2023-05-06T20:49:10.087Z,2.20
2023-05-06T20:51:38.509Z,2.60
2023-05-06T20:54:09.161Z,2.50
2023-05-06T20:56:37.339Z,6.35
2023-05-06T20:59:05.913Z,2.58
2023-05-06T21:01:34.117Z,4.97
2023-05-06T21:04:03.424Z,3.40
2023-05-06T21:06:33.007Z,2.83
2023-05-06T21:09:13.572Z,3.97
2023-05-06T21:11:41.947Z,4.43
2023-05-06T21:14:10.095Z,3.88
2023-05-06T21:16:41.278Z,2.75
2023-05-06T21:19:09.670Z,8.23
2023-05-06T21:21:39.221Z,3.50
2023-05-06T21:24:07.529Z,3.33
2023-05-06T21:26:35.678Z,2.60
2023-05-06T21:29:03.882Z,2.50
2023-05-06T21:31:32.232Z,3.70
2023-05-06T21:34:00.588Z,2.95
2023-05-06T21:36:28.716Z,2.70
2023-05-06T21:39:03.816Z,2.53
2023-05-06T21:41:32.122Z,2.85
2023-05-06T21:44:00.787Z,2.38
2023-05-06T21:46:28.955Z,2.80
2023-05-06T21:48:57.408Z,3.30
2023-05-06T21:51:27.407Z,2.40
2023-05-06T21:53:55.656Z,2.85
2023-05-06T21:56:25.582Z,3.38
2023-05-06T21:58:55.638Z,2.22
2023-05-06T22:01:26.172Z,2.65
2023-05-06T22:03:54.854Z,4.18
2023-05-06T22:06:23.677Z,3.38
2023-05-06T22:08:52.145Z,4.47
2023-05-06T22:11:22.619Z,4.68
2023-05-06T22:13:52.362Z,2.28
2023-05-06T22:16:20.636Z,3.40
2023-05-06T22:18:49.125Z,2.97
2023-05-06T22:21:17.160Z,3.40
2023-05-06T22:23:45.733Z,3.13
2023-05-06T22:26:13.828Z,3.38
2023-05-06T22:28:42.069Z,4.43
2023-05-06T22:31:11.853Z,2.97
2023-05-06T22:33:40.058Z,3.28
2023-05-06T22:36:09.026Z,3.55
2023-05-06T22:38:37.289Z,3.58
2023-05-06T22:41:05.403Z,3.38
2023-05-06T22:43:33.518Z,4.43
2023-05-06T22:46:01.908Z,4.43
2023-05-06T22:48:32.489Z,4.80
2023-05-06T22:51:01.510Z,4.38
2023-05-06T22:53:29.925Z,4.80
2023-05-06T22:55:58.201Z,4.65
2023-05-06T22:58:26.470Z,6.30
2023-05-06T23:00:55.509Z,4.68
2023-05-06T23:03:24.009Z,4.57
2023-05-06T23:05:53.768Z,6.25
2023-05-06T23:08:21.921Z,5.00
2023-05-06T23:10:50.086Z,3.80
2023-05-06T23:13:18.327Z,6.50
2023-05-06T23:15:46.583Z,5.03
2023-05-06T23:18:14.973Z,5.65
2023-05-06T23:20:44.687Z,6.13
2023-05-06T23:23:14.214Z,4.85
2023-05-06T23:25:42.432Z,6.50
2023-05-06T23:28:10.531Z,4.20
2023-05-06T23:30:38.619Z,5.55
2023-05-06T23:33:07.800Z,4.90
2023-05-06T23:35:36.007Z,5.10
2023-05-06T23:38:04.106Z,5.22
2023-05-06T23:40:33.734Z,5.32
2023-05-06T23:43:01.969Z,4.57
2023-05-06T23:45:30.433Z,4.28
2023-05-06T23:47:58.684Z,4.30
2023-05-06T23:50:26.911Z,4.45
2023-05-06T23:52:55.335Z,5.60
2023-05-06T23:55:23.456Z,4.22
2023-05-06T23:57:53.087Z,4.22
